Terminal Aerodrome Forecast
Issued by NWS

Home | Current Version | Previous Version | Text Only | Print | Product List | Glossary On
Versions: 1 2 3 4 5 6 7 8 9 10 11 12 13 14 15 16 17 18 19 20 21 22 23 24 25 26 27 28 29 30 31 32 33
000
FTUS43 KDVN 060312 AAB
TAFCID
TAF AMD
KCID 060312Z 0603/0624 10010KT 2SM BR OVC004
     FM060900 11008KT 2SM BR BKN006
     FM061300 15012KT P6SM SCT050
     FM061800 18015G20KT P6SM BKN250=

USA.gov is the U.S. government's official web portal to all federal, state and local government web resources and services.